sensor_id;sensor_type;location;lat;lon;timestamp;temperature;humidity
45619;DHT22;31343;47.520;19.144;2022-11-27T00:01:39;4.40;99.90
45619;DHT22;31343;47.520;19.144;2022-11-27T00:04:05;4.30;99.90
45619;DHT22;31343;47.520;19.144;2022-11-27T00:06:33;4.40;99.90
45619;DHT22;31343;47.520;19.144;2022-11-27T00:09:01;4.40;99.90
45619;DHT22;31343;47.520;19.144;2022-11-27T00:11:28;4.40;99.90
45619;DHT22;31343;47.520;19.144;2022-11-27T00:13:54;4.40;99.90
45619;DHT22;31343;47.520;19.144;2022-11-27T00:16:21;4.40;99.90
45619;DHT22;31343;47.520;19.144;2022-11-27T00:18:47;4.40;99.90
45619;DHT22;31343;47.520;19.144;2022-11-27T00:21:21;4.40;99.90
45619;DHT22;31343;47.520;19.144;2022-11-27T00:23:48;4.40;99.90
45619;DHT22;31343;47.520;19.144;2022-11-27T00:26:14;4.40;99.90
45619;DHT22;31343;47.520;19.144;2022-11-27T00:28:40;4.40;99.90
45619;DHT22;31343;47.520;19.144;2022-11-27T00:31:11;4.30;99.90
45619;DHT22;31343;47.520;19.144;2022-11-27T00:33:38;4.40;99.90
45619;DHT22;31343;47.520;19.144;2022-11-27T00:36:06;4.20;99.90
45619;DHT22;31343;47.520;19.144;2022-11-27T00:38:34;4.20;99.90
45619;DHT22;31343;47.520;19.144;2022-11-27T00:41:07;4.10;99.90
45619;DHT22;31343;47.520;19.144;2022-11-27T00:43:34;4.00;99.90
45619;DHT22;31343;47.520;19.144;2022-11-27T00:46:00;3.90;99.90
45619;DHT22;31343;47.520;19.144;2022-11-27T00:48:26;3.90;99.90
45619;DHT22;31343;47.520;19.144;2022-11-27T00:50:51;4.00;99.90
45619;DHT22;31343;47.520;19.144;2022-11-27T00:53:17;4.00;99.90
45619;DHT22;31343;47.520;19.144;2022-11-27T00:55:45;4.00;99.90
45619;DHT22;31343;47.520;19.144;2022-11-27T00:58:11;4.10;99.90
45619;DHT22;31343;47.520;19.144;2022-11-27T01:00:36;4.10;99.90
45619;DHT22;31343;47.520;19.144;2022-11-27T01:03:02;4.20;99.90
45619;DHT22;31343;47.520;19.144;2022-11-27T01:05:27;4.10;99.90
45619;DHT22;31343;47.520;19.144;2022-11-27T01:07:53;4.00;99.90
45619;DHT22;31343;47.520;19.144;2022-11-27T01:10:19;4.10;99.90
45619;DHT22;31343;47.520;19.144;2022-11-27T01:12:47;4.00;99.90
45619;DHT22;31343;47.520;19.144;2022-11-27T01:15:14;3.90;99.90
45619;DHT22;31343;47.520;19.144;2022-11-27T01:17:39;4.00;99.90
45619;DHT22;31343;47.520;19.144;2022-11-27T01:20:06;4.00;99.90
45619;DHT22;31343;47.520;19.144;2022-11-27T01:22:32;4.00;99.90
45619;DHT22;31343;47.520;19.144;2022-11-27T01:24:58;4.00;99.90
45619;DHT22;31343;47.520;19.144;2022-11-27T01:27:23;4.00;99.90
45619;DHT22;31343;47.520;19.144;2022-11-27T01:29:49;4.10;99.90
45619;DHT22;31343;47.520;19.144;2022-11-27T01:32:15;4.00;99.90
45619;DHT22;31343;47.520;19.144;2022-11-27T01:34:40;4.10;99.90
45619;DHT22;31343;47.520;19.144;2022-11-27T01:37:06;4.10;99.90
45619;DHT22;31343;47.520;19.144;2022-11-27T01:39:32;4.20;99.90
45619;DHT22;31343;47.520;19.144;2022-11-27T01:41:57;4.10;99.90
45619;DHT22;31343;47.520;19.144;2022-11-27T01:46:58;4.00;99.90
45619;DHT22;31343;47.520;19.144;2022-11-27T01:49:31;4.10;99.90
45619;DHT22;31343;47.520;19.144;2022-11-27T01:54:52;4.30;99.90
45619;DHT22;31343;47.520;19.144;2022-11-27T01:57:33;4.20;99.90
45619;DHT22;31343;47.520;19.144;2022-11-27T02:00:01;4.20;99.90
45619;DHT22;31343;47.520;19.144;2022-11-27T02:02:28;4.30;99.90
45619;DHT22;31343;47.520;19.144;2022-11-27T02:04:54;4.30;99.90
45619;DHT22;31343;47.520;19.144;2022-11-27T02:07:20;4.20;99.90
45619;DHT22;31343;47.520;19.144;2022-11-27T02:09:46;4.30;99.90
45619;DHT22;31343;47.520;19.144;2022-11-27T02:17:33;4.20;99.90
45619;DHT22;31343;47.520;19.144;2022-11-27T02:25:04;4.30;99.90
45619;DHT22;31343;47.520;19.144;2022-11-27T02:30:06;4.40;99.90
45619;DHT22;31343;47.520;19.144;2022-11-27T02:32:39;4.30;99.90
45619;DHT22;31343;47.520;19.144;2022-11-27T02:35:25;4.30;99.90
45619;DHT22;31343;47.520;19.144;2022-11-27T02:38:24;4.30;99.90
45619;DHT22;31343;47.520;19.144;2022-11-27T02:41:03;4.40;99.90
45619;DHT22;31343;47.520;19.144;2022-11-27T02:43:34;4.30;99.90
45619;DHT22;31343;47.520;19.144;2022-11-27T02:46:02;4.40;99.90
45619;DHT22;31343;47.520;19.144;2022-11-27T02:48:36;4.40;99.90
45619;DHT22;31343;47.520;19.144;2022-11-27T02:51:04;4.30;99.90
45619;DHT22;31343;47.520;19.144;2022-11-27T02:53:55;4.30;99.90
45619;DHT22;31343;47.520;19.144;2022-11-27T02:56:25;4.30;99.90
45619;DHT22;31343;47.520;19.144;2022-11-27T02:58:54;4.40;99.90
45619;DHT22;31343;47.520;19.144;2022-11-27T03:01:22;4.40;99.90
45619;DHT22;31343;47.520;19.144;2022-11-27T03:03:52;4.40;99.90
45619;DHT22;31343;47.520;19.144;2022-11-27T03:06:40;4.40;99.90
45619;DHT22;31343;47.520;19.144;2022-11-27T03:09:33;4.40;99.90
45619;DHT22;31343;47.520;19.144;2022-11-27T03:11:57;4.40;99.90
45619;DHT22;31343;47.520;19.144;2022-11-27T03:14:23;4.50;99.90
45619;DHT22;31343;47.520;19.144;2022-11-27T03:17:05;4.50;99.90
45619;DHT22;31343;47.520;19.144;2022-11-27T03:19:47;4.40;99.90
45619;DHT22;31343;47.520;19.144;2022-11-27T03:22:15;4.40;99.90
45619;DHT22;31343;47.520;19.144;2022-11-27T03:24:41;4.50;99.90
45619;DHT22;31343;47.520;19.144;2022-11-27T03:27:08;4.50;99.90
45619;DHT22;31343;47.520;19.144;2022-11-27T03:29:55;4.50;99.90
45619;DHT22;31343;47.520;19.144;2022-11-27T03:32:22;4.60;99.90
45619;DHT22;31343;47.520;19.144;2022-11-27T03:34:48;4.50;99.90
45619;DHT22;31343;47.520;19.144;2022-11-27T03:37:14;4.60;99.90
45619;DHT22;31343;47.520;19.144;2022-11-27T03:39:41;4.60;99.90
45619;DHT22;31343;47.520;19.144;2022-11-27T03:42:15;4.70;99.90
45619;DHT22;31343;47.520;19.144;2022-11-27T03:50:26;4.90;99.90
45619;DHT22;31343;47.520;19.144;2022-11-27T03:53:19;4.90;99.90
45619;DHT22;31343;47.520;19.144;2022-11-27T03:58:51;4.90;99.90
45619;DHT22;31343;47.520;19.144;2022-11-27T04:01:20;4.90;99.90
45619;DHT22;31343;47.520;19.144;2022-11-27T04:03:48;4.80;99.90
45619;DHT22;31343;47.520;19.144;2022-11-27T04:06:13;4.80;99.90
45619;DHT22;31343;47.520;19.144;2022-11-27T04:08:39;4.90;99.90
45619;DHT22;31343;47.520;19.144;2022-11-27T04:11:05;4.90;99.90
45619;DHT22;31343;47.520;19.144;2022-11-27T04:13:31;5.00;99.90
45619;DHT22;31343;47.520;19.144;2022-11-27T04:16:00;5.00;99.90
45619;DHT22;31343;47.520;19.144;2022-11-27T04:18:26;5.00;99.90
45619;DHT22;31343;47.520;19.144;2022-11-27T04:20:52;5.10;99.90
45619;DHT22;31343;47.520;19.144;2022-11-27T04:23:18;5.20;99.90
45619;DHT22;31343;47.520;19.144;2022-11-27T04:25:43;5.20;99.90
45619;DHT22;31343;47.520;19.144;2022-11-27T04:28:09;5.20;99.90
45619;DHT22;31343;47.520;19.144;2022-11-27T04:30:35;5.20;99.90
45619;DHT22;31343;47.520;19.144;2022-11-27T04:33:01;5.10;99.90
45619;DHT22;31343;47.520;19.144;2022-11-27T04:35:26;5.20;99.90
45619;DHT22;31343;47.520;19.144;2022-11-27T04:37:53;5.20;99.90
45619;DHT22;31343;47.520;19.144;2022-11-27T04:40:20;5.30;99.90
45619;DHT22;31343;47.520;19.144;2022-11-27T04:42:47;5.30;99.90
45619;DHT22;31343;47.520;19.144;2022-11-27T04:45:13;5.30;99.90
45619;DHT22;31343;47.520;19.144;2022-11-27T04:47:39;5.30;99.90
45619;DHT22;31343;47.520;19.144;2022-11-27T04:50:05;5.20;99.90
45619;DHT22;31343;47.520;19.144;2022-11-27T04:52:31;5.30;99.90
45619;DHT22;31343;47.520;19.144;2022-11-27T04:54:57;5.40;99.90
45619;DHT22;31343;47.520;19.144;2022-11-27T04:57:22;5.40;99.90
45619;DHT22;31343;47.520;19.144;2022-11-27T04:59:48;5.40;99.90
45619;DHT22;31343;47.520;19.144;2022-11-27T05:02:14;5.40;99.90
45619;DHT22;31343;47.520;19.144;2022-11-27T05:04:40;5.40;99.90
45619;DHT22;31343;47.520;19.144;2022-11-27T05:07:05;5.50;99.90
45619;DHT22;31343;47.520;19.144;2022-11-27T05:09:31;5.50;99.90
45619;DHT22;31343;47.520;19.144;2022-11-27T05:11:57;5.50;99.90
45619;DHT22;31343;47.520;19.144;2022-11-27T05:14:23;5.50;99.90
45619;DHT22;31343;47.520;19.144;2022-11-27T05:16:55;5.50;99.90
45619;DHT22;31343;47.520;19.144;2022-11-27T05:19:24;5.50;99.90
45619;DHT22;31343;47.520;19.144;2022-11-27T05:21:51;5.60;99.90
45619;DHT22;31343;47.520;19.144;2022-11-27T05:24:19;5.60;99.90
45619;DHT22;31343;47.520;19.144;2022-11-27T05:26:46;5.60;99.90
45619;DHT22;31343;47.520;19.144;2022-11-27T05:29:12;5.60;99.90
45619;DHT22;31343;47.520;19.144;2022-11-27T05:31:38;5.60;99.90
45619;DHT22;31343;47.520;19.144;2022-11-27T05:34:05;5.60;99.90
45619;DHT22;31343;47.520;19.144;2022-11-27T05:36:31;5.60;99.90
45619;DHT22;31343;47.520;19.144;2022-11-27T05:38:59;5.60;99.90
45619;DHT22;31343;47.520;19.144;2022-11-27T05:41:24;5.60;99.90
45619;DHT22;31343;47.520;19.144;2022-11-27T05:43:50;5.70;99.90
45619;DHT22;31343;47.520;19.144;2022-11-27T05:46:18;5.70;99.90
45619;DHT22;31343;47.520;19.144;2022-11-27T05:48:45;5.80;99.90
45619;DHT22;31343;47.520;19.144;2022-11-27T05:51:10;5.70;99.90
45619;DHT22;31343;47.520;19.144;2022-11-27T05:53:36;5.80;99.90
45619;DHT22;31343;47.520;19.144;2022-11-27T05:56:07;5.80;99.90
45619;DHT22;31343;47.520;19.144;2022-11-27T05:58:34;5.80;99.90
45619;DHT22;31343;47.520;19.144;2022-11-27T06:01:00;5.80;99.90
45619;DHT22;31343;47.520;19.144;2022-11-27T06:03:26;5.80;99.90
45619;DHT22;31343;47.520;19.144;2022-11-27T06:05:52;5.80;99.90
45619;DHT22;31343;47.520;19.144;2022-11-27T06:08:18;5.60;99.90
45619;DHT22;31343;47.520;19.144;2022-11-27T06:10:45;5.60;99.90
45619;DHT22;31343;47.520;19.144;2022-11-27T06:13:10;5.60;99.90
45619;DHT22;31343;47.520;19.144;2022-11-27T06:15:37;5.70;99.90
45619;DHT22;31343;47.520;19.144;2022-11-27T06:18:03;5.70;99.90
45619;DHT22;31343;47.520;19.144;2022-11-27T06:20:29;5.70;99.90
45619;DHT22;31343;47.520;19.144;2022-11-27T06:22:55;5.70;99.90
45619;DHT22;31343;47.520;19.144;2022-11-27T06:25:22;5.70;99.90
45619;DHT22;31343;47.520;19.144;2022-11-27T06:27:48;5.80;99.90
45619;DHT22;31343;47.520;19.144;2022-11-27T06:30:14;5.70;99.90
45619;DHT22;31343;47.520;19.144;2022-11-27T06:32:39;5.80;99.90
45619;DHT22;31343;47.520;19.144;2022-11-27T06:35:05;5.90;99.90
45619;DHT22;31343;47.520;19.144;2022-11-27T06:37:31;5.90;99.90
45619;DHT22;31343;47.520;19.144;2022-11-27T06:39:57;5.90;99.90
45619;DHT22;31343;47.520;19.144;2022-11-27T06:42:22;5.90;99.90
45619;DHT22;31343;47.520;19.144;2022-11-27T06:44:48;5.90;99.90
45619;DHT22;31343;47.520;19.144;2022-11-27T06:47:14;5.80;99.90
45619;DHT22;31343;47.520;19.144;2022-11-27T06:49:39;5.70;99.90
45619;DHT22;31343;47.520;19.144;2022-11-27T06:52:05;5.70;99.90
45619;DHT22;31343;47.520;19.144;2022-11-27T06:54:31;5.70;99.90
45619;DHT22;31343;47.520;19.144;2022-11-27T06:56:56;5.80;99.90
45619;DHT22;31343;47.520;19.144;2022-11-27T06:59:22;5.90;99.90
45619;DHT22;31343;47.520;19.144;2022-11-27T07:01:48;5.90;99.90
45619;DHT22;31343;47.520;19.144;2022-11-27T07:04:14;5.90;99.90
45619;DHT22;31343;47.520;19.144;2022-11-27T07:06:41;5.90;99.90
45619;DHT22;31343;47.520;19.144;2022-11-27T07:09:08;5.90;99.90
45619;DHT22;31343;47.520;19.144;2022-11-27T07:11:34;5.90;99.90
45619;DHT22;31343;47.520;19.144;2022-11-27T07:14:02;6.00;99.90
45619;DHT22;31343;47.520;19.144;2022-11-27T07:16:32;6.10;99.90
45619;DHT22;31343;47.520;19.144;2022-11-27T07:19:00;6.20;99.90
45619;DHT22;31343;47.520;19.144;2022-11-27T07:21:26;6.10;99.90
45619;DHT22;31343;47.520;19.144;2022-11-27T07:23:52;6.20;99.90
45619;DHT22;31343;47.520;19.144;2022-11-27T07:26:25;6.30;99.90
45619;DHT22;31343;47.520;19.144;2022-11-27T07:28:51;6.30;99.90
45619;DHT22;31343;47.520;19.144;2022-11-27T07:31:22;6.30;99.90
45619;DHT22;31343;47.520;19.144;2022-11-27T07:33:48;6.30;99.90
45619;DHT22;31343;47.520;19.144;2022-11-27T07:36:20;6.30;99.90
45619;DHT22;31343;47.520;19.144;2022-11-27T07:38:46;6.30;99.90
45619;DHT22;31343;47.520;19.144;2022-11-27T07:41:13;6.40;99.90
45619;DHT22;31343;47.520;19.144;2022-11-27T07:43:41;6.30;99.90
45619;DHT22;31343;47.520;19.144;2022-11-27T07:46:18;6.40;99.90
45619;DHT22;31343;47.520;19.144;2022-11-27T07:48:44;6.50;99.90
45619;DHT22;31343;47.520;19.144;2022-11-27T07:51:12;6.50;99.90
45619;DHT22;31343;47.520;19.144;2022-11-27T07:53:39;6.50;99.90
45619;DHT22;31343;47.520;19.144;2022-11-27T07:56:07;6.50;99.90
45619;DHT22;31343;47.520;19.144;2022-11-27T07:58:34;6.50;99.90
45619;DHT22;31343;47.520;19.144;2022-11-27T08:00:59;6.60;99.90
45619;DHT22;31343;47.520;19.144;2022-11-27T08:03:25;6.60;99.90
45619;DHT22;31343;47.520;19.144;2022-11-27T08:05:51;6.60;99.90
45619;DHT22;31343;47.520;19.144;2022-11-27T08:08:17;6.70;99.90
45619;DHT22;31343;47.520;19.144;2022-11-27T08:10:42;6.80;99.90
45619;DHT22;31343;47.520;19.144;2022-11-27T08:13:09;6.90;99.90
45619;DHT22;31343;47.520;19.144;2022-11-27T08:15:35;6.80;99.90
45619;DHT22;31343;47.520;19.144;2022-11-27T08:18:02;6.80;99.90
45619;DHT22;31343;47.520;19.144;2022-11-27T08:20:28;6.80;99.90
45619;DHT22;31343;47.520;19.144;2022-11-27T08:22:54;6.90;99.90
45619;DHT22;31343;47.520;19.144;2022-11-27T08:25:19;7.00;99.90
45619;DHT22;31343;47.520;19.144;2022-11-27T08:27:45;7.10;99.90
45619;DHT22;31343;47.520;19.144;2022-11-27T08:30:13;7.20;99.90
45619;DHT22;31343;47.520;19.144;2022-11-27T08:32:40;7.20;99.90
45619;DHT22;31343;47.520;19.144;2022-11-27T08:35:07;7.20;99.90
45619;DHT22;31343;47.520;19.144;2022-11-27T08:37:33;7.20;99.90
45619;DHT22;31343;47.520;19.144;2022-11-27T08:39:59;7.20;99.90
45619;DHT22;31343;47.520;19.144;2022-11-27T08:42:25;7.20;99.90
45619;DHT22;31343;47.520;19.144;2022-11-27T08:44:51;7.20;99.90
45619;DHT22;31343;47.520;19.144;2022-11-27T08:47:16;7.20;99.90
45619;DHT22;31343;47.520;19.144;2022-11-27T08:49:43;7.20;99.90
45619;DHT22;31343;47.520;19.144;2022-11-27T08:52:09;7.20;99.90
45619;DHT22;31343;47.520;19.144;2022-11-27T08:54:35;7.20;99.90
45619;DHT22;31343;47.520;19.144;2022-11-27T08:57:01;7.10;99.90
45619;DHT22;31343;47.520;19.144;2022-11-27T08:59:27;7.10;99.90
45619;DHT22;31343;47.520;19.144;2022-11-27T09:01:53;7.20;99.90
45619;DHT22;31343;47.520;19.144;2022-11-27T09:04:19;7.00;99.90
45619;DHT22;31343;47.520;19.144;2022-11-27T09:06:45;7.00;99.90
45619;DHT22;31343;47.520;19.144;2022-11-27T09:09:13;7.10;99.90
45619;DHT22;31343;47.520;19.144;2022-11-27T09:11:40;7.10;99.90
45619;DHT22;31343;47.520;19.144;2022-11-27T09:14:06;7.10;99.90
45619;DHT22;31343;47.520;19.144;2022-11-27T09:16:33;7.20;99.90
45619;DHT22;31343;47.520;19.144;2022-11-27T09:18:59;7.30;99.90
45619;DHT22;31343;47.520;19.144;2022-11-27T09:21:26;7.30;99.90
45619;DHT22;31343;47.520;19.144;2022-11-27T09:23:54;7.30;99.90
45619;DHT22;31343;47.520;19.144;2022-11-27T09:26:20;7.20;99.90
45619;DHT22;31343;47.520;19.144;2022-11-27T09:28:47;7.20;99.90
45619;DHT22;31343;47.520;19.144;2022-11-27T09:31:14;7.20;99.90
45619;DHT22;31343;47.520;19.144;2022-11-27T09:33:41;7.20;99.90
45619;DHT22;31343;47.520;19.144;2022-11-27T09:36:09;7.20;99.90
45619;DHT22;31343;47.520;19.144;2022-11-27T09:38:35;7.10;99.90
45619;DHT22;31343;47.520;19.144;2022-11-27T09:43:43;7.20;99.90
45619;DHT22;31343;47.520;19.144;2022-11-27T09:46:14;7.20;99.90
45619;DHT22;31343;47.520;19.144;2022-11-27T09:48:46;7.20;99.90
45619;DHT22;31343;47.520;19.144;2022-11-27T09:51:28;7.20;99.90
45619;DHT22;31343;47.520;19.144;2022-11-27T09:54:23;7.20;99.90
45619;DHT22;31343;47.520;19.144;2022-11-27T09:56:50;6.90;99.90
45619;DHT22;31343;47.520;19.144;2022-11-27T09:59:19;7.00;99.90
45619;DHT22;31343;47.520;19.144;2022-11-27T10:01:47;7.00;99.90
45619;DHT22;31343;47.520;19.144;2022-11-27T10:04:14;6.80;99.90
45619;DHT22;31343;47.520;19.144;2022-11-27T10:09:23;6.80;99.90
45619;DHT22;31343;47.520;19.144;2022-11-27T10:12:00;6.90;99.90
45619;DHT22;31343;47.520;19.144;2022-11-27T10:14:52;6.90;99.90
45619;DHT22;31343;47.520;19.144;2022-11-27T10:30:28;6.60;99.90
45619;DHT22;31343;47.520;19.144;2022-11-27T10:32:56;6.50;99.90
45619;DHT22;31343;47.520;19.144;2022-11-27T10:35:30;6.50;99.90
45619;DHT22;31343;47.520;19.144;2022-11-27T10:38:05;6.60;99.90
45619;DHT22;31343;47.520;19.144;2022-11-27T10:43:20;6.70;99.90
45619;DHT22;31343;47.520;19.144;2022-11-27T10:48:21;6.80;99.90
45619;DHT22;31343;47.520;19.144;2022-11-27T10:50:47;6.80;99.90
45619;DHT22;31343;47.520;19.144;2022-11-27T10:53:31;6.70;99.90
45619;DHT22;31343;47.520;19.144;2022-11-27T11:01:17;6.60;99.90
45619;DHT22;31343;47.520;19.144;2022-11-27T11:03:43;6.60;99.90
45619;DHT22;31343;47.520;19.144;2022-11-27T11:06:24;6.60;99.90
45619;DHT22;31343;47.520;19.144;2022-11-27T11:09:05;6.70;99.90
45619;DHT22;31343;47.520;19.144;2022-11-27T11:11:31;6.80;99.90
45619;DHT22;31343;47.520;19.144;2022-11-27T11:13:57;6.90;99.90
45619;DHT22;31343;47.520;19.144;2022-11-27T11:16:27;7.00;99.90
45619;DHT22;31343;47.520;19.144;2022-11-27T11:18:55;6.80;99.90
45619;DHT22;31343;47.520;19.144;2022-11-27T11:21:30;6.70;99.90
45619;DHT22;31343;47.520;19.144;2022-11-27T11:24:10;6.70;99.90
45619;DHT22;31343;47.520;19.144;2022-11-27T11:26:40;6.60;99.90
45619;DHT22;31343;47.520;19.144;2022-11-27T11:29:25;6.70;99.90
45619;DHT22;31343;47.520;19.144;2022-11-27T11:31:53;6.60;99.90
45619;DHT22;31343;47.520;19.144;2022-11-27T11:34:26;6.80;99.90
45619;DHT22;31343;47.520;19.144;2022-11-27T11:37:04;6.90;99.90
45619;DHT22;31343;47.520;19.144;2022-11-27T11:40:34;7.00;99.90
45619;DHT22;31343;47.520;19.144;2022-11-27T11:42:53;7.00;99.90
45619;DHT22;31343;47.520;19.144;2022-11-27T11:45:20;7.00;99.90
45619;DHT22;31343;47.520;19.144;2022-11-27T11:50:51;6.70;99.90
45619;DHT22;31343;47.520;19.144;2022-11-27T11:58:34;6.70;99.90
45619;DHT22;31343;47.520;19.144;2022-11-27T12:07:35;6.70;99.90
45619;DHT22;31343;47.520;19.144;2022-11-27T12:10:11;6.70;99.90
45619;DHT22;31343;47.520;19.144;2022-11-27T12:25:56;6.60;99.90
45619;DHT22;31343;47.520;19.144;2022-11-27T12:28:43;6.60;99.90
45619;DHT22;31343;47.520;19.144;2022-11-27T12:40:18;6.50;99.90
45619;DHT22;31343;47.520;19.144;2022-11-27T12:45:37;6.50;99.90
45619;DHT22;31343;47.520;19.144;2022-11-27T12:54:02;6.60;99.90
45619;DHT22;31343;47.520;19.144;2022-11-27T12:56:41;6.70;99.90
45619;DHT22;31343;47.520;19.144;2022-11-27T12:59:27;6.70;99.90
45619;DHT22;31343;47.520;19.144;2022-11-27T13:02:09;6.70;99.90
45619;DHT22;31343;47.520;19.144;2022-11-27T13:04:54;6.80;99.90
45619;DHT22;31343;47.520;19.144;2022-11-27T13:07:27;6.70;99.90
45619;DHT22;31343;47.520;19.144;2022-11-27T13:13:08;6.50;99.90
45619;DHT22;31343;47.520;19.144;2022-11-27T13:15:43;6.60;99.90
45619;DHT22;31343;47.520;19.144;2022-11-27T13:18:32;6.60;99.90
45619;DHT22;31343;47.520;19.144;2022-11-27T13:21:01;6.70;99.90
45619;DHT22;31343;47.520;19.144;2022-11-27T13:23:32;6.60;99.90
45619;DHT22;31343;47.520;19.144;2022-11-27T13:26:00;6.60;99.90
45619;DHT22;31343;47.520;19.144;2022-11-27T13:28:39;6.60;99.90
45619;DHT22;31343;47.520;19.144;2022-11-27T13:31:07;6.70;99.90
45619;DHT22;31343;47.520;19.144;2022-11-27T13:33:40;6.60;99.90
45619;DHT22;31343;47.520;19.144;2022-11-27T13:36:18;6.60;99.90
45619;DHT22;31343;47.520;19.144;2022-11-27T13:38:44;6.60;99.90
45619;DHT22;31343;47.520;19.144;2022-11-27T13:41:35;6.60;99.90
45619;DHT22;31343;47.520;19.144;2022-11-27T13:44:18;6.60;99.90
45619;DHT22;31343;47.520;19.144;2022-11-27T13:46:46;6.50;99.90
45619;DHT22;31343;47.520;19.144;2022-11-27T13:49:38;6.50;99.90
45619;DHT22;31343;47.520;19.144;2022-11-27T13:52:10;6.50;99.90
45619;DHT22;31343;47.520;19.144;2022-11-27T13:54:37;6.50;99.90
45619;DHT22;31343;47.520;19.144;2022-11-27T13:57:11;6.50;99.90
45619;DHT22;31343;47.520;19.144;2022-11-27T13:59:37;6.50;99.90
45619;DHT22;31343;47.520;19.144;2022-11-27T14:02:05;6.50;99.90
45619;DHT22;31343;47.520;19.144;2022-11-27T14:04:32;6.40;99.90
45619;DHT22;31343;47.520;19.144;2022-11-27T14:07:09;6.40;99.90
45619;DHT22;31343;47.520;19.144;2022-11-27T14:09:46;6.50;99.90
45619;DHT22;31343;47.520;19.144;2022-11-27T14:12:24;6.40;99.90
45619;DHT22;31343;47.520;19.144;2022-11-27T14:17:44;6.30;99.90
45619;DHT22;31343;47.520;19.144;2022-11-27T14:25:24;6.20;99.90
45619;DHT22;31343;47.520;19.144;2022-11-27T14:28:22;6.20;99.90
45619;DHT22;31343;47.520;19.144;2022-11-27T14:30:59;6.20;99.90
45619;DHT22;31343;47.520;19.144;2022-11-27T14:33:27;6.20;99.90
45619;DHT22;31343;47.520;19.144;2022-11-27T14:36:03;6.20;99.90
45619;DHT22;31343;47.520;19.144;2022-11-27T14:38:31;6.20;99.90
45619;DHT22;31343;47.520;19.144;2022-11-27T14:41:18;6.20;99.90
45619;DHT22;31343;47.520;19.144;2022-11-27T14:43:43;6.30;99.90
45619;DHT22;31343;47.520;19.144;2022-11-27T14:46:18;6.30;99.90
45619;DHT22;31343;47.520;19.144;2022-11-27T14:51:20;6.20;99.90
45619;DHT22;31343;47.520;19.144;2022-11-27T14:53:51;6.20;99.90
45619;DHT22;31343;47.520;19.144;2022-11-27T14:56:19;6.30;99.90
45619;DHT22;31343;47.520;19.144;2022-11-27T14:58:52;6.20;99.90
45619;DHT22;31343;47.520;19.144;2022-11-27T15:01:27;6.20;99.90
45619;DHT22;31343;47.520;19.144;2022-11-27T15:04:01;6.20;99.90
45619;DHT22;31343;47.520;19.144;2022-11-27T15:06:34;6.10;99.90
45619;DHT22;31343;47.520;19.144;2022-11-27T15:09:00;6.00;99.90
45619;DHT22;31343;47.520;19.144;2022-11-27T15:11:27;6.00;99.90
45619;DHT22;31343;47.520;19.144;2022-11-27T15:13:56;6.10;99.90
45619;DHT22;31343;47.520;19.144;2022-11-27T15:16:24;6.20;99.90
45619;DHT22;31343;47.520;19.144;2022-11-27T15:19:01;6.10;99.90
45619;DHT22;31343;47.520;19.144;2022-11-27T15:21:29;6.10;99.90
45619;DHT22;31343;47.520;19.144;2022-11-27T15:24:00;6.10;99.90
45619;DHT22;31343;47.520;19.144;2022-11-27T15:26:37;6.10;99.90
45619;DHT22;31343;47.520;19.144;2022-11-27T15:32:23;6.30;99.90
45619;DHT22;31343;47.520;19.144;2022-11-27T15:34:50;6.30;99.90
45619;DHT22;31343;47.520;19.144;2022-11-27T15:37:31;6.20;99.90
45619;DHT22;31343;47.520;19.144;2022-11-27T15:39:59;6.20;99.90
45619;DHT22;31343;47.520;19.144;2022-11-27T15:42:27;6.20;99.90
45619;DHT22;31343;47.520;19.144;2022-11-27T15:45:11;6.20;99.90
45619;DHT22;31343;47.520;19.144;2022-11-27T15:47:37;6.20;99.90
45619;DHT22;31343;47.520;19.144;2022-11-27T15:50:05;6.20;99.90
45619;DHT22;31343;47.520;19.144;2022-11-27T15:52:31;6.30;99.90
45619;DHT22;31343;47.520;19.144;2022-11-27T15:54:57;6.30;99.90
45619;DHT22;31343;47.520;19.144;2022-11-27T15:57:23;6.30;99.90
45619;DHT22;31343;47.520;19.144;2022-11-27T15:59:49;6.30;99.90
45619;DHT22;31343;47.520;19.144;2022-11-27T16:02:15;6.40;99.90
45619;DHT22;31343;47.520;19.144;2022-11-27T16:04:40;6.40;99.90
45619;DHT22;31343;47.520;19.144;2022-11-27T16:07:07;6.30;99.90
45619;DHT22;31343;47.520;19.144;2022-11-27T16:09:33;6.40;99.90
45619;DHT22;31343;47.520;19.144;2022-11-27T16:12:00;6.40;99.90
45619;DHT22;31343;47.520;19.144;2022-11-27T16:14:26;6.40;99.90
45619;DHT22;31343;47.520;19.144;2022-11-27T16:16:52;6.40;99.90
45619;DHT22;31343;47.520;19.144;2022-11-27T16:19:17;6.30;99.90
45619;DHT22;31343;47.520;19.144;2022-11-27T16:21:43;6.30;99.90
45619;DHT22;31343;47.520;19.144;2022-11-27T16:24:12;6.30;99.90
45619;DHT22;31343;47.520;19.144;2022-11-27T16:26:38;6.30;99.90
45619;DHT22;31343;47.520;19.144;2022-11-27T16:29:05;6.40;99.90
45619;DHT22;31343;47.520;19.144;2022-11-27T16:31:31;6.20;99.90
45619;DHT22;31343;47.520;19.144;2022-11-27T16:33:57;6.20;99.90
45619;DHT22;31343;47.520;19.144;2022-11-27T16:36:24;6.10;99.90
45619;DHT22;31343;47.520;19.144;2022-11-27T16:38:53;6.10;99.90
45619;DHT22;31343;47.520;19.144;2022-11-27T16:41:20;6.10;99.90
45619;DHT22;31343;47.520;19.144;2022-11-27T16:43:48;6.00;99.90
45619;DHT22;31343;47.520;19.144;2022-11-27T16:46:33;6.00;99.90
45619;DHT22;31343;47.520;19.144;2022-11-27T16:49:00;6.00;99.90
45619;DHT22;31343;47.520;19.144;2022-11-27T16:51:28;6.10;99.90
45619;DHT22;31343;47.520;19.144;2022-11-27T16:53:56;6.10;99.90
45619;DHT22;31343;47.520;19.144;2022-11-27T16:56:25;6.20;99.90
45619;DHT22;31343;47.520;19.144;2022-11-27T16:58:52;6.10;99.90
45619;DHT22;31343;47.520;19.144;2022-11-27T17:01:21;6.10;99.90
45619;DHT22;31343;47.520;19.144;2022-11-27T17:03:48;6.00;99.90
45619;DHT22;31343;47.520;19.144;2022-11-27T17:06:16;6.00;99.90
45619;DHT22;31343;47.520;19.144;2022-11-27T17:08:42;5.90;99.90
45619;DHT22;31343;47.520;19.144;2022-11-27T17:11:13;6.00;99.90
45619;DHT22;31343;47.520;19.144;2022-11-27T17:13:39;6.00;99.90
45619;DHT22;31343;47.520;19.144;2022-11-27T17:16:06;6.00;99.90
45619;DHT22;31343;47.520;19.144;2022-11-27T17:18:35;5.90;99.90
45619;DHT22;31343;47.520;19.144;2022-11-27T17:21:07;5.80;99.90
45619;DHT22;31343;47.520;19.144;2022-11-27T17:23:35;5.90;99.90
45619;DHT22;31343;47.520;19.144;2022-11-27T17:26:10;5.80;99.90
45619;DHT22;31343;47.520;19.144;2022-11-27T17:28:36;5.80;99.90
45619;DHT22;31343;47.520;19.144;2022-11-27T17:31:08;5.90;99.90
45619;DHT22;31343;47.520;19.144;2022-11-27T17:33:34;5.80;99.90
45619;DHT22;31343;47.520;19.144;2022-11-27T17:35:59;5.80;99.90
45619;DHT22;31343;47.520;19.144;2022-11-27T17:38:25;5.80;99.90
45619;DHT22;31343;47.520;19.144;2022-11-27T17:40:51;5.90;99.90
45619;DHT22;31343;47.520;19.144;2022-11-27T17:43:16;5.90;99.90